createdAt,value
2022-11-07T00:00:39.807Z,4.06
2022-11-07T00:02:41.320Z,4.06
2022-11-07T00:04:42.836Z,4.06
2022-11-07T00:08:45.368Z,4.06
2022-11-07T00:10:47.113Z,4.06
2022-11-07T00:14:49.332Z,4.05
2022-11-07T00:16:51.209Z,4.06
2022-11-07T00:18:53.110Z,4.05
2022-11-07T00:20:54.084Z,4.05
2022-11-07T00:24:57.317Z,4.05
2022-11-07T00:26:58.594Z,4.05
2022-11-07T00:28:59.821Z,4.05
2022-11-07T00:31:01.315Z,4.05
2022-11-07T00:33:02.678Z,4.05
2022-11-07T00:35:04.063Z,4.05
2022-11-07T00:37:05.879Z,4.05
2022-11-07T00:41:08.574Z,4.05
2022-11-07T00:43:10.311Z,4.05
2022-11-07T00:45:12.170Z,4.05
2022-11-07T00:47:13.245Z,4.05
2022-11-07T00:51:15.761Z,4.05
2022-11-07T00:53:17.496Z,4.05
2022-11-07T00:55:18.712Z,4.05
2022-11-07T00:57:20.376Z,4.05
2022-11-07T00:59:21.968Z,4.05
2022-11-07T01:01:23.944Z,4.05
2022-11-07T01:03:24.996Z,4.04
2022-11-07T01:07:28.081Z,4.05
2022-11-07T01:09:29.719Z,4.04
2022-11-07T01:13:33.335Z,4.04
2022-11-07T01:15:34.877Z,4.04
2022-11-07T01:17:36.079Z,4.04
2022-11-07T01:19:37.619Z,4.04
2022-11-07T01:20:21.422Z,4.04
2022-11-07T01:22:22.823Z,4.04
2022-11-07T01:24:24.624Z,4.04
2022-11-07T01:28:26.913Z,4.04
2022-11-07T01:30:28.610Z,4.04
2022-11-07T01:32:29.914Z,4.04
2022-11-07T01:34:31.728Z,4.04
2022-11-07T01:36:33.117Z,4.04
2022-11-07T01:38:34.237Z,4.04
2022-11-07T01:40:36.039Z,4.04
2022-11-07T01:44:46.577Z,4.04
2022-11-07T01:46:40.152Z,4.04
2022-11-07T01:50:43.236Z,4.04
2022-11-07T01:52:44.714Z,4.04
2022-11-07T01:54:46.172Z,4.04
2022-11-07T01:56:47.719Z,4.04
2022-11-07T02:00:50.308Z,4.04
2022-11-07T02:02:52.217Z,4.04
2022-11-07T02:04:53.196Z,4.04
2022-11-07T02:06:55.045Z,4.04
2022-11-07T02:08:56.538Z,4.04
2022-11-07T02:10:57.524Z,4.04
2022-11-07T02:12:59.290Z,4.04
2022-11-07T02:17:02.550Z,4.04
2022-11-07T02:19:03.765Z,4.04
2022-11-07T02:21:05.495Z,4.04
2022-11-07T02:23:07.102Z,4.04
2022-11-07T02:27:10.177Z,4.04
2022-11-07T02:29:11.857Z,4.04
2022-11-07T02:31:13.095Z,4.04
2022-11-07T02:33:14.702Z,4.03
2022-11-07T02:35:15.910Z,4.04
2022-11-07T02:37:17.433Z,4.04
2022-11-07T02:39:18.602Z,4.03
2022-11-07T02:43:20.755Z,4.03
2022-11-07T02:45:22.235Z,4.03
2022-11-07T02:47:23.953Z,4.03
2022-11-07T02:49:25.159Z,4.03
2022-11-07T02:51:26.651Z,4.03
2022-11-07T02:53:28.150Z,4.03
2022-11-07T02:55:29.744Z,4.03
2022-11-07T02:59:32.047Z,4.03
2022-11-07T03:01:33.604Z,4.03
2022-11-07T03:03:35.357Z,4.03
2022-11-07T03:05:36.742Z,4.03
2022-11-07T03:09:39.514Z,4.03
2022-11-07T03:11:41.208Z,4.03
2022-11-07T03:15:43.803Z,4.03
2022-11-07T03:17:45.470Z,4.02
2022-11-07T03:19:47.264Z,4.02
2022-11-07T03:21:48.735Z,4.02
2022-11-07T03:25:51.458Z,4.03
2022-11-07T03:27:53.049Z,4.02
2022-11-07T03:29:54.740Z,4.02
2022-11-07T03:31:56.333Z,4.02
2022-11-07T03:33:57.587Z,4.03
2022-11-07T03:35:58.754Z,4.02
2022-11-07T03:37:59.935Z,4.02
2022-11-07T03:42:02.677Z,4.02
2022-11-07T03:44:04.539Z,4.02
2022-11-07T03:46:05.562Z,4.02
2022-11-07T03:48:06.540Z,4.02
2022-11-07T03:52:09.789Z,4.02
2022-11-07T03:54:11.317Z,4.02
2022-11-07T03:56:12.484Z,4.02
2022-11-07T03:58:13.857Z,4.02
2022-11-07T04:00:14.817Z,4.02
2022-11-07T04:02:16.168Z,4.02
2022-11-07T04:04:17.924Z,4.02
2022-11-07T04:08:20.726Z,4.02
2022-11-07T04:10:22.604Z,4.02
2022-11-07T04:14:25.041Z,4.02
2022-11-07T04:16:26.480Z,4.02
2022-11-07T04:18:27.693Z,4.02
2022-11-07T04:20:28.750Z,4.02
2022-11-07T04:24:31.295Z,4.02
2022-11-07T04:26:33.186Z,4.02
2022-11-07T04:28:34.784Z,4.02
2022-11-07T04:30:36.179Z,4.01
2022-11-07T04:34:38.776Z,4.01
2022-11-07T04:36:40.198Z,4.02
2022-11-07T04:38:41.266Z,4.01
2022-11-07T04:40:42.233Z,4.02
2022-11-07T04:42:43.380Z,4.02
2022-11-07T04:44:44.356Z,4.01
2022-11-07T04:46:45.995Z,4.02
2022-11-07T04:50:48.197Z,4.02
2022-11-07T04:52:49.200Z,4.01
2022-11-07T04:54:50.232Z,4.01
2022-11-07T04:56:51.501Z,4.01
2022-11-07T04:58:52.600Z,4.01
2022-11-07T05:00:53.793Z,4.01
2022-11-07T05:02:54.791Z,4.01
2022-11-07T05:06:58.049Z,4.01
2022-11-07T05:08:59.664Z,4.01
2022-11-07T05:11:01.238Z,4.01
2022-11-07T05:13:02.218Z,4.01
2022-11-07T05:15:04.032Z,4.01
2022-11-07T05:17:05.314Z,4.01
2022-11-07T05:19:07.096Z,4.01
2022-11-07T05:23:10.232Z,4.01
2022-11-07T05:25:12.058Z,4.01
2022-11-07T05:27:13.299Z,4.01
2022-11-07T05:29:14.951Z,4
2022-11-07T05:33:18.673Z,4.01
2022-11-07T05:35:19.698Z,4.01
2022-11-07T05:39:23.068Z,4.01
2022-11-07T05:41:24.594Z,4.01
2022-11-07T05:43:25.860Z,4.01
2022-11-07T05:45:27.265Z,4
2022-11-07T05:49:30.511Z,4
2022-11-07T05:51:31.543Z,4
2022-11-07T05:53:33.239Z,4
2022-11-07T05:55:34.683Z,4
2022-11-07T05:57:36.076Z,4
2022-11-07T05:59:37.671Z,4
2022-11-07T06:01:39.348Z,4
2022-11-07T06:05:42.742Z,4.01
2022-11-07T06:07:43.815Z,4
2022-11-07T06:09:45.020Z,4
2022-11-07T06:11:46.573Z,4
2022-11-07T06:13:47.509Z,4
2022-11-07T06:15:49.295Z,4
2022-11-07T06:17:50.632Z,4
2022-11-07T06:19:51.917Z,4
2022-11-07T06:21:53.108Z,4
2022-11-07T06:23:54.712Z,4
2022-11-07T06:25:55.733Z,4
2022-11-07T06:27:57.165Z,4
2022-11-07T06:31:59.445Z,4
2022-11-07T06:34:00.636Z,4
2022-11-07T06:38:03.358Z,4
2022-11-07T06:40:04.304Z,4
2022-11-07T06:42:05.973Z,4
2022-11-07T06:44:07.755Z,4
2022-11-07T06:48:10.171Z,4
2022-11-07T06:50:11.554Z,4
2022-11-07T06:52:13.488Z,4
2022-11-07T06:54:15.245Z,4
2022-11-07T06:58:18.332Z,3.99
2022-11-07T07:00:19.843Z,4
2022-11-07T07:04:22.641Z,4
2022-11-07T07:06:23.991Z,4
2022-11-07T07:08:25.285Z,3.99
2022-11-07T07:10:26.483Z,3.99
2022-11-07T07:14:29.336Z,4
2022-11-07T07:16:31.056Z,3.99
2022-11-07T07:18:32.002Z,3.99
2022-11-07T07:20:33.775Z,4
2022-11-07T07:22:35.279Z,3.99
2022-11-07T07:24:36.897Z,3.99
2022-11-07T07:26:38.015Z,4
2022-11-07T07:30:41.128Z,3.99
2022-11-07T07:32:42.484Z,3.99
2022-11-07T07:34:44.042Z,3.99
2022-11-07T07:36:45.325Z,3.99
2022-11-07T07:38:46.781Z,3.99
2022-11-07T07:40:47.803Z,3.99
2022-11-07T07:42:48.961Z,3.99
2022-11-07T07:46:51.578Z,3.99
2022-11-07T07:48:53.296Z,3.99
2022-11-07T07:50:54.672Z,3.99
2022-11-07T07:52:55.942Z,3.99
2022-11-07T07:56:58.416Z,3.99
2022-11-07T07:59:00.190Z,3.99
2022-11-07T08:03:03.097Z,4
2022-11-07T08:05:04.038Z,4
2022-11-07T08:05:47.807Z,4
2022-11-07T08:07:49.653Z,4.01
2022-11-07T08:09:51.332Z,4
2022-11-07T08:11:52.843Z,4
2022-11-07T08:13:57.196Z,4.01
2022-11-07T08:15:55.859Z,4.04
2022-11-07T08:17:57.412Z,4.04
2022-11-07T08:19:58.928Z,4.02
2022-11-07T08:24:01.159Z,4.01
2022-11-07T08:26:02.759Z,4.01
2022-11-07T08:28:04.537Z,4
2022-11-07T08:30:06.240Z,4
2022-11-07T08:34:08.538Z,4
2022-11-07T08:36:09.773Z,4.01
2022-11-07T08:38:11.289Z,4.01
2022-11-07T08:40:12.721Z,4.01
2022-11-07T08:42:14.452Z,4.02
2022-11-07T08:44:16.332Z,4.01
2022-11-07T08:46:18.172Z,4.01
2022-11-07T08:50:20.325Z,4.02
2022-11-07T08:52:22.013Z,4.03
2022-11-07T08:56:24.280Z,4.03
2022-11-07T08:58:29.811Z,4.05
2022-11-07T09:00:26.897Z,4.06
2022-11-07T09:03:18.231Z,4.06
2022-11-07T09:06:30.584Z,4.07
2022-11-07T09:08:31.748Z,4.08
2022-11-07T09:10:33.397Z,4.08
2022-11-07T09:12:34.894Z,4.08
2022-11-07T09:16:37.018Z,4.09
2022-11-07T09:18:38.278Z,4.1
2022-11-07T09:22:40.929Z,4.08
2022-11-07T09:24:41.837Z,4.09
2022-11-07T09:26:42.953Z,4.1
2022-11-07T09:28:49.937Z,4.1
2022-11-07T09:32:47.770Z,4.11
2022-11-07T09:34:54.428Z,4.11
2022-11-07T09:36:50.910Z,4.12
2022-11-07T09:38:52.027Z,4.12
2022-11-07T09:40:53.519Z,4.12
2022-11-07T09:44:56.314Z,4.13
2022-11-07T09:48:59.120Z,4.14
2022-11-07T09:51:00.570Z,4.14
2022-11-07T09:53:01.535Z,4.11
2022-11-07T09:55:02.619Z,4.11
2022-11-07T09:57:03.770Z,4.11
2022-11-07T09:59:05.800Z,4.12
2022-11-07T10:01:06.395Z,4.12
2022-11-07T10:05:08.508Z,4.14
2022-11-07T10:07:09.529Z,4.15
2022-11-07T10:09:11.037Z,4.15
2022-11-07T10:11:12.543Z,4.16
2022-11-07T10:15:15.737Z,4.16
2022-11-07T10:17:17.786Z,4.16
2022-11-07T10:19:19.278Z,4.16
2022-11-07T10:21:36.896Z,4.17
2022-11-07T10:23:22.760Z,4.16
2022-11-07T10:25:23.730Z,4.15
2022-11-07T10:27:25.488Z,4.14
2022-11-07T10:31:28.134Z,4.14
2022-11-07T10:33:29.772Z,4.14
2022-11-07T10:35:30.802Z,4.15
2022-11-07T10:37:32.442Z,4.16
2022-11-07T10:39:33.317Z,4.17
2022-11-07T10:41:34.183Z,4.17
2022-11-07T10:43:35.222Z,4.17
2022-11-07T10:47:38.414Z,4.18
2022-11-07T10:49:40.018Z,4.17
2022-11-07T10:51:41.221Z,4.17
2022-11-07T10:53:42.634Z,4.16
2022-11-07T10:57:45.541Z,4.18
2022-11-07T10:59:47.208Z,4.17
2022-11-07T11:01:48.878Z,4.17
2022-11-07T11:03:50.366Z,4.17
2022-11-07T11:05:51.357Z,4.17
2022-11-07T11:09:54.506Z,4.17
2022-11-07T11:13:57.649Z,4.17
2022-11-07T11:16:04.378Z,4.16
2022-11-07T11:18:00.093Z,4.17
2022-11-07T11:20:01.463Z,4.17
2022-11-07T11:22:07.275Z,4.16
2022-11-07T11:24:04.851Z,4.16
2022-11-07T11:26:06.203Z,4.16
2022-11-07T11:30:08.805Z,4.16
2022-11-07T11:32:10.366Z,4.16
2022-11-07T11:34:11.860Z,4.16
2022-11-07T11:36:12.891Z,4.16
2022-11-07T11:40:15.997Z,4.16
2022-11-07T11:42:17.716Z,4.16
2022-11-07T11:44:19.021Z,4.16
2022-11-07T11:46:20.155Z,4.16
2022-11-07T11:48:21.170Z,4.16
2022-11-07T11:50:22.372Z,4.17
2022-11-07T11:52:24.093Z,4.17
2022-11-07T11:56:26.336Z,4.17
2022-11-07T11:58:28.014Z,4.16
2022-11-07T12:00:29.884Z,4.16
2022-11-07T12:02:30.879Z,4.16
2022-11-07T12:04:32.039Z,4.16
2022-11-07T12:06:33.231Z,4.16
2022-11-07T12:08:34.635Z,4.16
2022-11-07T12:12:37.007Z,4.16
2022-11-07T12:14:38.237Z,4.16
2022-11-07T12:16:39.915Z,4.16
2022-11-07T12:18:41.339Z,4.16
2022-11-07T12:20:42.683Z,4.16
2022-11-07T12:22:43.890Z,4.16
2022-11-07T12:24:45.256Z,4.17
2022-11-07T12:28:48.457Z,4.18
2022-11-07T12:30:50.057Z,4.18
2022-11-07T12:32:51.013Z,4.18
2022-11-07T12:34:52.432Z,4.19
2022-11-07T12:38:55.005Z,4.19
2022-11-07T12:40:55.863Z,4.19
2022-11-07T12:44:58.753Z,4.19
2022-11-07T12:46:59.972Z,4.19
2022-11-07T12:49:01.656Z,4.2
2022-11-07T12:51:03.197Z,4.19
2022-11-07T12:55:06.378Z,4.19
2022-11-07T12:57:08.008Z,4.2
2022-11-07T13:01:09.922Z,4.19
2022-11-07T13:03:10.798Z,4.2
2022-11-07T13:05:12.230Z,4.2
2022-11-07T13:07:13.110Z,4.2
2022-11-07T13:09:14.551Z,4.2
2022-11-07T13:11:15.960Z,4.2
2022-11-07T13:13:18.100Z,4.2
2022-11-07T13:15:19.380Z,4.19
2022-11-07T13:17:20.639Z,4.18
2022-11-07T13:19:23.631Z,4.18
2022-11-07T13:21:23.463Z,4.18
2022-11-07T13:23:24.369Z,4.18
2022-11-07T13:27:26.838Z,4.18
2022-11-07T13:29:28.563Z,4.18
2022-11-07T13:33:31.614Z,4.18
2022-11-07T13:35:32.939Z,4.17
2022-11-07T13:37:33.864Z,4.18
2022-11-07T13:39:34.722Z,4.18
2022-11-07T13:43:36.850Z,4.17
2022-11-07T13:45:38.166Z,4.18
2022-11-07T13:47:39.126Z,4.17
2022-11-07T13:49:44.431Z,4.17
2022-11-07T13:51:41.309Z,4.17
2022-11-07T13:53:42.562Z,4.17
2022-11-07T13:55:43.948Z,4.17
2022-11-07T13:59:47.018Z,4.17
2022-11-07T14:01:48.605Z,4.17
2022-11-07T14:03:49.856Z,4.17
2022-11-07T14:05:51.000Z,4.17
2022-11-07T14:09:53.683Z,4.17
2022-11-07T14:11:54.567Z,4.17
2022-11-07T14:13:56.249Z,4.17
2022-11-07T14:15:57.625Z,4.17
2022-11-07T14:17:58.669Z,4.17
2022-11-07T14:20:00.329Z,4.17
2022-11-07T14:22:02.102Z,4.17
2022-11-07T14:26:04.806Z,4.17
2022-11-07T14:28:06.207Z,4.17
2022-11-07T14:30:07.076Z,4.17
2022-11-07T14:32:07.949Z,4.17
2022-11-07T14:34:09.642Z,4.17
2022-11-07T14:36:11.405Z,4.17
2022-11-07T14:38:12.495Z,4.17
2022-11-07T14:42:15.392Z,4.17
2022-11-07T14:44:16.490Z,4.16
2022-11-07T14:46:18.332Z,4.17
2022-11-07T14:48:20.182Z,4.17
2022-11-07T14:50:20.847Z,4.16
2022-11-07T14:51:04.627Z,4.16
2022-11-07T14:53:05.634Z,4.17
2022-11-07T14:55:07.296Z,4.16
2022-11-07T14:57:08.292Z,4.16
2022-11-07T14:59:09.407Z,4.16
2022-11-07T15:03:12.461Z,4.16
2022-11-07T15:05:13.638Z,4.16
2022-11-07T15:09:16.195Z,4.16
2022-11-07T15:11:17.921Z,4.16
2022-11-07T15:13:19.252Z,4.16
2022-11-07T15:15:21.002Z,4.16
2022-11-07T15:19:23.433Z,4.16
2022-11-07T15:21:24.737Z,4.16
2022-11-07T15:23:26.419Z,4.16
2022-11-07T15:25:27.554Z,4.16
2022-11-07T15:27:29.008Z,4.16
2022-11-07T15:29:30.061Z,4.16
2022-11-07T15:31:31.830Z,4.16
2022-11-07T15:35:43.350Z,4.16
2022-11-07T15:37:35.262Z,4.16
2022-11-07T15:39:36.658Z,4.16
2022-11-07T15:41:37.618Z,4.16
2022-11-07T15:45:40.523Z,4.16
2022-11-07T15:47:42.275Z,4.16
2022-11-07T15:49:43.971Z,4.16
2022-11-07T15:51:45.622Z,4.16
2022-11-07T15:53:46.979Z,4.16
2022-11-07T15:55:48.171Z,4.15
2022-11-07T15:57:49.222Z,4.15
2022-11-07T16:01:52.097Z,4.15
2022-11-07T16:03:53.322Z,4.15
2022-11-07T16:05:54.519Z,4.15
2022-11-07T16:08:03.729Z,4.15
2022-11-07T16:09:57.039Z,4.15
2022-11-07T16:11:58.510Z,4.15
2022-11-07T16:14:21.927Z,4.15
2022-11-07T16:18:02.578Z,4.15
2022-11-07T16:20:03.875Z,4.15
2022-11-07T16:22:05.682Z,4.15
2022-11-07T16:24:06.754Z,4.15
2022-11-07T16:26:08.624Z,4.15
2022-11-07T16:28:09.613Z,4.15
2022-11-07T16:30:10.898Z,4.14
2022-11-07T16:34:13.053Z,4.14
2022-11-07T16:36:14.643Z,4.14
2022-11-07T16:38:16.522Z,4.14
2022-11-07T16:40:17.810Z,4.15
2022-11-07T16:44:25.736Z,4.14
2022-11-07T16:46:22.130Z,4.14
2022-11-07T16:50:24.852Z,4.14
2022-11-07T16:52:26.004Z,4.14
2022-11-07T16:54:27.462Z,4.14
2022-11-07T16:56:28.394Z,4.14
2022-11-07T17:00:31.566Z,4.14
2022-11-07T17:02:33.412Z,4.14
2022-11-07T17:04:34.825Z,4.14
2022-11-07T17:06:36.151Z,4.14
2022-11-07T17:08:37.885Z,4.14
2022-11-07T17:10:39.664Z,4.14
2022-11-07T17:12:40.670Z,4.14
2022-11-07T17:16:43.486Z,4.14
2022-11-07T17:18:45.225Z,4.14
2022-11-07T17:20:51.184Z,4.14
2022-11-07T17:22:47.805Z,4.14
2022-11-07T17:26:50.853Z,4.14
2022-11-07T17:28:51.806Z,4.14
2022-11-07T17:30:52.879Z,4.14
2022-11-07T17:32:54.683Z,4.13
2022-11-07T17:35:30.278Z,4.14
2022-11-07T17:36:57.676Z,4.14
2022-11-07T17:38:58.553Z,4.14
2022-11-07T17:43:01.079Z,4.13
2022-11-07T17:45:02.085Z,4.13
2022-11-07T17:49:04.170Z,4.14
2022-11-07T17:51:05.908Z,4.13
2022-11-07T17:53:07.633Z,4.13
2022-11-07T17:55:09.025Z,4.13
2022-11-07T17:59:11.226Z,4.13
2022-11-07T18:01:12.973Z,4.13
2022-11-07T18:03:13.908Z,4.13
2022-11-07T18:05:15.363Z,4.13
2022-11-07T18:07:16.431Z,4.13
2022-11-07T18:09:18.265Z,4.13
2022-11-07T18:11:19.274Z,4.13
2022-11-07T18:15:22.040Z,4.13
2022-11-07T18:17:23.530Z,4.13
2022-11-07T18:19:24.734Z,4.13
2022-11-07T18:21:26.376Z,4.13
2022-11-07T18:25:29.480Z,4.12
2022-11-07T18:27:30.984Z,4.13
2022-11-07T18:29:32.153Z,4.12
2022-11-07T18:31:33.555Z,4.13
2022-11-07T18:33:35.280Z,4.13
2022-11-07T18:35:36.484Z,4.13
2022-11-07T18:37:37.864Z,4.12
2022-11-07T18:41:40.831Z,4.12
2022-11-07T18:43:42.307Z,4.12
2022-11-07T18:45:43.592Z,4.12
2022-11-07T18:47:45.165Z,4.12
2022-11-07T18:49:47.058Z,4.12
2022-11-07T18:51:48.761Z,4.12
2022-11-07T18:53:49.834Z,4.12
2022-11-07T18:57:53.350Z,4.12
2022-11-07T18:59:55.009Z,4.12
2022-11-07T19:01:56.100Z,4.12
2022-11-07T19:03:57.183Z,4.12
2022-11-07T19:08:00.107Z,4.12
2022-11-07T19:10:01.048Z,4.12
2022-11-07T19:14:03.571Z,4.12
2022-11-07T19:16:04.525Z,4.12
2022-11-07T19:18:06.293Z,4.12
2022-11-07T19:20:07.281Z,4.12
2022-11-07T19:24:10.353Z,4.12
2022-11-07T19:26:11.638Z,4.12
2022-11-07T19:30:14.367Z,4.12
2022-11-07T19:32:15.499Z,4.12
2022-11-07T19:34:17.387Z,4.12
2022-11-07T19:36:18.819Z,4.11
2022-11-07T19:40:21.009Z,4.11
2022-11-07T19:42:22.452Z,4.11
2022-11-07T19:44:24.013Z,4.11
2022-11-07T19:46:25.535Z,4.11
2022-11-07T19:50:28.992Z,4.11
2022-11-07T19:52:29.965Z,4.11
2022-11-07T19:54:30.994Z,4.11
2022-11-07T19:56:31.950Z,4.11
2022-11-07T19:58:33.393Z,4.11
2022-11-07T20:00:34.609Z,4.11
2022-11-07T20:02:40.220Z,4.11
2022-11-07T20:06:38.687Z,4.11
2022-11-07T20:08:40.336Z,4.11
2022-11-07T20:10:41.567Z,4.11
2022-11-07T20:12:43.343Z,4.11
2022-11-07T20:14:45.241Z,4.11
2022-11-07T20:16:46.401Z,4.11
2022-11-07T20:18:48.340Z,4.11
2022-11-07T20:22:51.106Z,4.11
2022-11-07T20:24:52.102Z,4.11
2022-11-07T20:26:53.621Z,4.1
2022-11-07T20:28:54.661Z,4.11
2022-11-07T20:30:56.557Z,4.1
2022-11-07T20:32:58.253Z,4.11
2022-11-07T20:34:59.822Z,4.1
2022-11-07T20:39:03.198Z,4.1
2022-11-07T20:41:04.334Z,4.1
2022-11-07T20:43:05.403Z,4.1
2022-11-07T20:45:06.830Z,4.1
2022-11-07T20:49:09.495Z,4.1
2022-11-07T20:51:10.439Z,4.1
2022-11-07T20:55:12.914Z,4.1
2022-11-07T20:57:14.500Z,4.1
2022-11-07T20:59:16.395Z,4.1
2022-11-07T21:01:18.082Z,4.1
2022-11-07T21:05:20.729Z,4.1
2022-11-07T21:07:21.701Z,4.1
2022-11-07T21:09:23.225Z,4.1
2022-11-07T21:11:24.642Z,4.1
2022-11-07T21:13:26.535Z,4.1
2022-11-07T21:15:27.517Z,4.1
2022-11-07T21:17:28.694Z,4.1
2022-11-07T21:21:31.528Z,4.1
2022-11-07T21:23:32.741Z,4.1
2022-11-07T21:25:34.568Z,4.1
2022-11-07T21:27:35.609Z,4.1
2022-11-07T21:31:39.100Z,4.1
2022-11-07T21:33:40.696Z,4.1
2022-11-07T21:35:42.138Z,4.1
2022-11-07T21:38:27.471Z,4.09
2022-11-07T21:42:30.275Z,4.09
2022-11-07T21:44:31.579Z,4.1
2022-11-07T21:48:34.941Z,4.09
2022-11-07T21:50:44.481Z,4.09
2022-11-07T21:52:37.623Z,4.09
2022-11-07T21:54:38.671Z,4.09
2022-11-07T21:58:41.568Z,4.09
2022-11-07T22:00:42.825Z,4.09
2022-11-07T22:02:44.504Z,4.09
2022-11-07T22:04:46.081Z,4.09
2022-11-07T22:08:49.572Z,4.09
2022-11-07T22:10:50.703Z,4.09
2022-11-07T22:12:52.133Z,4.09
2022-11-07T22:14:54.057Z,4.09
2022-11-07T22:16:55.512Z,4.09
2022-11-07T22:18:56.876Z,4.09
2022-11-07T22:20:58.521Z,4.08
2022-11-07T22:25:01.956Z,4.09
2022-11-07T22:27:03.766Z,4.09
2022-11-07T22:31:06.204Z,4.08
2022-11-07T22:33:07.627Z,4.09
2022-11-07T22:35:09.515Z,4.09
2022-11-07T22:37:10.712Z,4.08
2022-11-07T22:41:12.769Z,4.08
2022-11-07T22:43:14.350Z,4.08
2022-11-07T22:45:15.536Z,4.08
2022-11-07T22:47:16.785Z,4.08
2022-11-07T22:49:18.424Z,4.08
2022-11-07T22:51:19.420Z,4.08
2022-11-07T22:53:20.991Z,4.08
2022-11-07T22:57:23.732Z,4.08
2022-11-07T22:59:25.484Z,4.08
2022-11-07T23:01:27.349Z,4.08
2022-11-07T23:03:28.767Z,4.08
2022-11-07T23:07:31.964Z,4.08
2022-11-07T23:09:33.218Z,4.08
2022-11-07T23:11:47.867Z,4.08
2022-11-07T23:13:35.202Z,4.08
2022-11-07T23:15:37.033Z,4.08
2022-11-07T23:17:38.337Z,4.08
2022-11-07T23:19:39.837Z,4.08
2022-11-07T23:23:42.645Z,4.08
2022-11-07T23:25:44.302Z,4.08
2022-11-07T23:27:45.450Z,4.08
2022-11-07T23:29:46.516Z,4.08
2022-11-07T23:31:48.258Z,4.08
2022-11-07T23:33:49.293Z,4.07
2022-11-07T23:35:50.384Z,4.07
2022-11-07T23:39:53.412Z,4.08
2022-11-07T23:41:54.797Z,4.08
2022-11-07T23:43:56.705Z,4.07
2022-11-07T23:45:58.515Z,4.07
2022-11-07T23:50:01.300Z,4.07
2022-11-07T23:52:02.852Z,4.07
2022-11-07T23:56:06.301Z,4.07
2022-11-07T23:58:07.787Z,4.07
